sensor_id;sensor_type;location;lat;lon;timestamp;temperature;humidity
32626;DHT22;19038;50.922;11.880;2022-12-07T00:01:33;5.00;88.00
32626;DHT22;19038;50.922;11.880;2022-12-07T00:06:33;4.90;87.80
32626;DHT22;19038;50.922;11.880;2022-12-07T00:11:32;4.90;87.30
32626;DHT22;19038;50.922;11.880;2022-12-07T00:16:32;4.80;87.50
32626;DHT22;19038;50.922;11.880;2022-12-07T00:21:34;4.80;87.70
32626;DHT22;19038;50.922;11.880;2022-12-07T00:26:33;4.80;87.40
32626;DHT22;19038;50.922;11.880;2022-12-07T00:31:33;4.80;87.50
32626;DHT22;19038;50.922;11.880;2022-12-07T00:36:32;4.70;87.40
32626;DHT22;19038;50.922;11.880;2022-12-07T00:41:32;4.70;87.00
32626;DHT22;19038;50.922;11.880;2022-12-07T00:46:32;4.70;87.50
32626;DHT22;19038;50.922;11.880;2022-12-07T00:51:32;4.70;87.40
32626;DHT22;19038;50.922;11.880;2022-12-07T00:56:32;4.60;87.20
32626;DHT22;19038;50.922;11.880;2022-12-07T01:01:33;4.70;87.70
32626;DHT22;19038;50.922;11.880;2022-12-07T01:06:32;4.60;87.60
32626;DHT22;19038;50.922;11.880;2022-12-07T01:11:32;4.60;87.60
32626;DHT22;19038;50.922;11.880;2022-12-07T01:16:32;4.60;87.40
32626;DHT22;19038;50.922;11.880;2022-12-07T01:21:33;4.60;87.40
32626;DHT22;19038;50.922;11.880;2022-12-07T01:26:32;4.50;86.80
32626;DHT22;19038;50.922;11.880;2022-12-07T01:31:32;4.50;87.10
32626;DHT22;19038;50.922;11.880;2022-12-07T01:36:34;4.40;86.90
32626;DHT22;19038;50.922;11.880;2022-12-07T01:41:34;4.40;86.80
32626;DHT22;19038;50.922;11.880;2022-12-07T01:46:32;4.30;86.80
32626;DHT22;19038;50.922;11.880;2022-12-07T01:51:32;4.30;86.70
32626;DHT22;19038;50.922;11.880;2022-12-07T01:56:32;4.30;86.60
32626;DHT22;19038;50.922;11.880;2022-12-07T02:01:32;4.20;86.50
32626;DHT22;19038;50.922;11.880;2022-12-07T02:06:32;4.20;86.60
32626;DHT22;19038;50.922;11.880;2022-12-07T02:11:32;4.20;86.50
32626;DHT22;19038;50.922;11.880;2022-12-07T02:31:32;4.10;86.40
32626;DHT22;19038;50.922;11.880;2022-12-07T02:36:33;4.10;86.30
32626;DHT22;19038;50.922;11.880;2022-12-07T02:41:35;4.00;86.60
32626;DHT22;19038;50.922;11.880;2022-12-07T02:46:33;4.00;86.70
32626;DHT22;19038;50.922;11.880;2022-12-07T02:51:33;4.00;86.70
32626;DHT22;19038;50.922;11.880;2022-12-07T02:56:39;3.90;86.40
32626;DHT22;19038;50.922;11.880;2022-12-07T03:01:37;3.90;86.80
32626;DHT22;19038;50.922;11.880;2022-12-07T03:06:33;3.90;86.60
32626;DHT22;19038;50.922;11.880;2022-12-07T03:11:38;3.90;86.90
32626;DHT22;19038;50.922;11.880;2022-12-07T03:16:35;3.90;86.70
32626;DHT22;19038;50.922;11.880;2022-12-07T03:21:34;3.90;87.20
32626;DHT22;19038;50.922;11.880;2022-12-07T03:26:36;3.90;87.10
32626;DHT22;19038;50.922;11.880;2022-12-07T03:31:33;3.90;87.10
32626;DHT22;19038;50.922;11.880;2022-12-07T03:36:42;4.00;87.10
32626;DHT22;19038;50.922;11.880;2022-12-07T03:41:33;4.00;87.10
32626;DHT22;19038;50.922;11.880;2022-12-07T03:46:35;4.00;86.90
32626;DHT22;19038;50.922;11.880;2022-12-07T03:56:32;4.00;87.40
32626;DHT22;19038;50.922;11.880;2022-12-07T04:01:32;4.00;87.40
32626;DHT22;19038;50.922;11.880;2022-12-07T04:06:32;4.00;87.60
32626;DHT22;19038;50.922;11.880;2022-12-07T04:11:32;4.00;87.50
32626;DHT22;19038;50.922;11.880;2022-12-07T04:16:32;4.00;87.90
32626;DHT22;19038;50.922;11.880;2022-12-07T04:21:32;4.10;88.20
32626;DHT22;19038;50.922;11.880;2022-12-07T04:26:32;4.10;88.30
32626;DHT22;19038;50.922;11.880;2022-12-07T04:31:32;4.10;88.30
32626;DHT22;19038;50.922;11.880;2022-12-07T04:36:32;4.00;88.50
32626;DHT22;19038;50.922;11.880;2022-12-07T04:41:33;4.10;88.60
32626;DHT22;19038;50.922;11.880;2022-12-07T04:46:32;4.10;88.70
32626;DHT22;19038;50.922;11.880;2022-12-07T04:51:32;4.20;88.80
32626;DHT22;19038;50.922;11.880;2022-12-07T04:56:33;4.20;89.00
32626;DHT22;19038;50.922;11.880;2022-12-07T05:01:33;4.10;89.10
32626;DHT22;19038;50.922;11.880;2022-12-07T05:06:33;4.20;88.90
32626;DHT22;19038;50.922;11.880;2022-12-07T05:11:36;4.20;89.00
32626;DHT22;19038;50.922;11.880;2022-12-07T05:16:33;4.20;89.00
32626;DHT22;19038;50.922;11.880;2022-12-07T05:21:40;4.20;89.10
32626;DHT22;19038;50.922;11.880;2022-12-07T05:26:34;4.20;89.00
32626;DHT22;19038;50.922;11.880;2022-12-07T05:36:32;4.20;89.40
32626;DHT22;19038;50.922;11.880;2022-12-07T05:41:32;4.20;89.50
32626;DHT22;19038;50.922;11.880;2022-12-07T05:46:33;4.20;89.60
32626;DHT22;19038;50.922;11.880;2022-12-07T05:51:32;4.20;89.60
32626;DHT22;19038;50.922;11.880;2022-12-07T05:56:32;4.30;89.80
32626;DHT22;19038;50.922;11.880;2022-12-07T06:01:32;4.30;89.60
32626;DHT22;19038;50.922;11.880;2022-12-07T06:06:32;4.30;89.80
32626;DHT22;19038;50.922;11.880;2022-12-07T06:11:32;4.30;89.80
32626;DHT22;19038;50.922;11.880;2022-12-07T06:16:32;4.30;89.60
32626;DHT22;19038;50.922;11.880;2022-12-07T06:21:32;4.30;89.70
32626;DHT22;19038;50.922;11.880;2022-12-07T06:26:32;4.30;89.80
32626;DHT22;19038;50.922;11.880;2022-12-07T06:31:32;4.40;89.80
32626;DHT22;19038;50.922;11.880;2022-12-07T06:36:34;4.40;89.60
32626;DHT22;19038;50.922;11.880;2022-12-07T06:41:33;4.40;89.50
32626;DHT22;19038;50.922;11.880;2022-12-07T06:46:33;4.40;89.60
32626;DHT22;19038;50.922;11.880;2022-12-07T06:51:33;4.40;89.50
32626;DHT22;19038;50.922;11.880;2022-12-07T06:56:32;4.50;89.70
32626;DHT22;19038;50.922;11.880;2022-12-07T07:01:33;4.40;89.10
32626;DHT22;19038;50.922;11.880;2022-12-07T07:06:33;4.40;90.00
32626;DHT22;19038;50.922;11.880;2022-12-07T07:11:32;4.40;89.90
32626;DHT22;19038;50.922;11.880;2022-12-07T07:16:32;4.50;90.10
32626;DHT22;19038;50.922;11.880;2022-12-07T07:21:32;4.50;90.00
32626;DHT22;19038;50.922;11.880;2022-12-07T07:26:32;4.50;90.20
32626;DHT22;19038;50.922;11.880;2022-12-07T07:31:32;4.60;90.20
32626;DHT22;19038;50.922;11.880;2022-12-07T07:36:32;4.60;90.50
32626;DHT22;19038;50.922;11.880;2022-12-07T07:41:32;4.60;90.20
32626;DHT22;19038;50.922;11.880;2022-12-07T07:46:32;4.60;90.30
32626;DHT22;19038;50.922;11.880;2022-12-07T07:51:32;4.70;90.50
32626;DHT22;19038;50.922;11.880;2022-12-07T07:56:33;4.80;90.30
32626;DHT22;19038;50.922;11.880;2022-12-07T08:01:32;4.80;90.10
32626;DHT22;19038;50.922;11.880;2022-12-07T08:06:32;4.80;90.00
32626;DHT22;19038;50.922;11.880;2022-12-07T08:11:32;4.80;90.20
32626;DHT22;19038;50.922;11.880;2022-12-07T08:16:33;4.80;90.20
32626;DHT22;19038;50.922;11.880;2022-12-07T08:21:32;4.90;90.30
32626;DHT22;19038;50.922;11.880;2022-12-07T08:26:32;5.00;90.20
32626;DHT22;19038;50.922;11.880;2022-12-07T08:31:33;5.00;90.20
32626;DHT22;19038;50.922;11.880;2022-12-07T08:36:32;5.00;90.30
32626;DHT22;19038;50.922;11.880;2022-12-07T08:41:33;5.10;90.40
32626;DHT22;19038;50.922;11.880;2022-12-07T08:46:35;5.10;90.40
32626;DHT22;19038;50.922;11.880;2022-12-07T08:51:33;5.10;90.50
32626;DHT22;19038;50.922;11.880;2022-12-07T08:56:33;5.20;90.50
32626;DHT22;19038;50.922;11.880;2022-12-07T09:01:32;5.20;90.60
32626;DHT22;19038;50.922;11.880;2022-12-07T09:06:33;5.20;90.50
32626;DHT22;19038;50.922;11.880;2022-12-07T09:11:33;5.20;90.70
32626;DHT22;19038;50.922;11.880;2022-12-07T09:16:33;5.30;90.70
32626;DHT22;19038;50.922;11.880;2022-12-07T09:21:32;5.40;90.60
32626;DHT22;19038;50.922;11.880;2022-12-07T09:26:33;5.40;90.50
32626;DHT22;19038;50.922;11.880;2022-12-07T09:31:32;5.50;90.60
32626;DHT22;19038;50.922;11.880;2022-12-07T09:36:33;5.50;90.40
32626;DHT22;19038;50.922;11.880;2022-12-07T09:41:33;5.50;90.40
32626;DHT22;19038;50.922;11.880;2022-12-07T09:46:34;5.50;90.40
32626;DHT22;19038;50.922;11.880;2022-12-07T09:51:33;5.60;90.40
32626;DHT22;19038;50.922;11.880;2022-12-07T09:56:33;5.60;90.50
32626;DHT22;19038;50.922;11.880;2022-12-07T10:01:33;5.60;90.40
32626;DHT22;19038;50.922;11.880;2022-12-07T10:06:33;5.60;90.20
32626;DHT22;19038;50.922;11.880;2022-12-07T10:11:33;5.70;90.40
32626;DHT22;19038;50.922;11.880;2022-12-07T10:21:33;5.70;90.30
32626;DHT22;19038;50.922;11.880;2022-12-07T10:26:34;5.80;90.20
32626;DHT22;19038;50.922;11.880;2022-12-07T10:31:33;5.80;90.30
32626;DHT22;19038;50.922;11.880;2022-12-07T10:36:35;5.80;90.10
32626;DHT22;19038;50.922;11.880;2022-12-07T10:41:33;5.80;90.10
32626;DHT22;19038;50.922;11.880;2022-12-07T10:46:37;5.90;90.10
32626;DHT22;19038;50.922;11.880;2022-12-07T10:51:37;5.80;90.10
32626;DHT22;19038;50.922;11.880;2022-12-07T10:56:37;5.90;90.00
32626;DHT22;19038;50.922;11.880;2022-12-07T11:01:36;6.00;89.70
32626;DHT22;19038;50.922;11.880;2022-12-07T11:06:34;6.00;89.20
32626;DHT22;19038;50.922;11.880;2022-12-07T11:11:37;6.00;89.10
32626;DHT22;19038;50.922;11.880;2022-12-07T11:16:42;5.90;88.60
32626;DHT22;19038;50.922;11.880;2022-12-07T11:21:40;5.90;88.20
32626;DHT22;19038;50.922;11.880;2022-12-07T11:26:39;5.90;89.10
32626;DHT22;19038;50.922;11.880;2022-12-07T11:31:36;5.90;88.40
32626;DHT22;19038;50.922;11.880;2022-12-07T11:36:35;5.90;88.10
32626;DHT22;19038;50.922;11.880;2022-12-07T11:41:34;6.00;87.60
32626;DHT22;19038;50.922;11.880;2022-12-07T11:51:34;6.00;87.30
32626;DHT22;19038;50.922;11.880;2022-12-07T11:56:33;6.00;87.40
32626;DHT22;19038;50.922;11.880;2022-12-07T12:01:41;6.00;86.80
32626;DHT22;19038;50.922;11.880;2022-12-07T12:06:33;6.00;87.00
32626;DHT22;19038;50.922;11.880;2022-12-07T12:11:40;6.00;86.60
32626;DHT22;19038;50.922;11.880;2022-12-07T12:16:39;5.90;86.70
32626;DHT22;19038;50.922;11.880;2022-12-07T12:21:33;5.90;87.20
32626;DHT22;19038;50.922;11.880;2022-12-07T12:26:33;5.90;87.30
32626;DHT22;19038;50.922;11.880;2022-12-07T12:31:36;6.00;87.70
32626;DHT22;19038;50.922;11.880;2022-12-07T12:46:37;6.10;86.00
32626;DHT22;19038;50.922;11.880;2022-12-07T12:51:37;6.10;85.80
32626;DHT22;19038;50.922;11.880;2022-12-07T12:56:36;6.10;85.70
32626;DHT22;19038;50.922;11.880;2022-12-07T13:06:34;6.10;87.30
32626;DHT22;19038;50.922;11.880;2022-12-07T13:11:35;6.10;86.60
32626;DHT22;19038;50.922;11.880;2022-12-07T13:16:36;6.00;85.90
32626;DHT22;19038;50.922;11.880;2022-12-07T13:26:37;5.90;86.20
32626;DHT22;19038;50.922;11.880;2022-12-07T13:36:36;5.90;86.70
32626;DHT22;19038;50.922;11.880;2022-12-07T13:41:33;5.90;86.70
32626;DHT22;19038;50.922;11.880;2022-12-07T13:51:34;5.80;86.60
32626;DHT22;19038;50.922;11.880;2022-12-07T13:56:34;5.70;86.70
32626;DHT22;19038;50.922;11.880;2022-12-07T14:01:33;5.70;86.80
32626;DHT22;19038;50.922;11.880;2022-12-07T14:06:33;5.70;87.30
32626;DHT22;19038;50.922;11.880;2022-12-07T14:11:33;5.70;87.00
32626;DHT22;19038;50.922;11.880;2022-12-07T14:16:34;5.70;87.20
32626;DHT22;19038;50.922;11.880;2022-12-07T14:21:33;5.70;87.20
32626;DHT22;19038;50.922;11.880;2022-12-07T14:26:33;5.60;87.00
32626;DHT22;19038;50.922;11.880;2022-12-07T14:31:33;5.60;86.90
32626;DHT22;19038;50.922;11.880;2022-12-07T14:36:33;5.70;86.80
32626;DHT22;19038;50.922;11.880;2022-12-07T14:41:33;5.60;86.70
32626;DHT22;19038;50.922;11.880;2022-12-07T14:46:33;5.60;86.20
32626;DHT22;19038;50.922;11.880;2022-12-07T14:51:33;5.60;86.80
32626;DHT22;19038;50.922;11.880;2022-12-07T14:56:33;5.60;86.20
32626;DHT22;19038;50.922;11.880;2022-12-07T15:01:33;5.60;86.20
32626;DHT22;19038;50.922;11.880;2022-12-07T15:06:33;5.50;85.80
32626;DHT22;19038;50.922;11.880;2022-12-07T15:11:33;5.50;85.70
32626;DHT22;19038;50.922;11.880;2022-12-07T15:16:33;5.50;86.20
32626;DHT22;19038;50.922;11.880;2022-12-07T15:21:33;5.50;86.10
32626;DHT22;19038;50.922;11.880;2022-12-07T15:26:33;5.50;85.70
32626;DHT22;19038;50.922;11.880;2022-12-07T15:31:33;5.40;85.40
32626;DHT22;19038;50.922;11.880;2022-12-07T15:36:33;5.40;85.80
32626;DHT22;19038;50.922;11.880;2022-12-07T15:41:33;5.30;85.60
32626;DHT22;19038;50.922;11.880;2022-12-07T15:46:34;5.30;85.50
32626;DHT22;19038;50.922;11.880;2022-12-07T15:51:33;5.20;86.20
32626;DHT22;19038;50.922;11.880;2022-12-07T15:56:33;5.20;86.20
32626;DHT22;19038;50.922;11.880;2022-12-07T16:01:33;5.20;86.50
32626;DHT22;19038;50.922;11.880;2022-12-07T16:06:33;5.20;86.80
32626;DHT22;19038;50.922;11.880;2022-12-07T16:11:33;5.20;87.00
32626;DHT22;19038;50.922;11.880;2022-12-07T16:16:33;5.30;86.80
32626;DHT22;19038;50.922;11.880;2022-12-07T16:21:33;5.30;86.50
32626;DHT22;19038;50.922;11.880;2022-12-07T16:26:33;5.30;86.20
32626;DHT22;19038;50.922;11.880;2022-12-07T16:31:33;5.30;86.50
32626;DHT22;19038;50.922;11.880;2022-12-07T16:36:33;5.30;87.00
32626;DHT22;19038;50.922;11.880;2022-12-07T16:41:33;5.30;87.00
32626;DHT22;19038;50.922;11.880;2022-12-07T16:46:33;5.30;87.00
32626;DHT22;19038;50.922;11.880;2022-12-07T16:51:33;5.30;87.10
32626;DHT22;19038;50.922;11.880;2022-12-07T16:56:33;5.30;87.20
32626;DHT22;19038;50.922;11.880;2022-12-07T17:01:33;5.40;87.30
32626;DHT22;19038;50.922;11.880;2022-12-07T17:06:33;5.30;87.30
32626;DHT22;19038;50.922;11.880;2022-12-07T17:11:33;5.40;87.20
32626;DHT22;19038;50.922;11.880;2022-12-07T17:16:33;5.40;87.20
32626;DHT22;19038;50.922;11.880;2022-12-07T17:21:33;5.40;87.20
32626;DHT22;19038;50.922;11.880;2022-12-07T17:26:33;5.40;86.70
32626;DHT22;19038;50.922;11.880;2022-12-07T17:31:33;5.40;86.60
32626;DHT22;19038;50.922;11.880;2022-12-07T17:36:33;5.40;86.70
32626;DHT22;19038;50.922;11.880;2022-12-07T17:41:33;5.20;86.40
32626;DHT22;19038;50.922;11.880;2022-12-07T17:46:33;5.20;86.20
32626;DHT22;19038;50.922;11.880;2022-12-07T17:51:33;5.20;86.20
32626;DHT22;19038;50.922;11.880;2022-12-07T17:56:33;5.10;86.70
32626;DHT22;19038;50.922;11.880;2022-12-07T18:01:33;5.20;87.10
32626;DHT22;19038;50.922;11.880;2022-12-07T18:06:33;5.20;87.00
32626;DHT22;19038;50.922;11.880;2022-12-07T18:11:33;5.20;87.00
32626;DHT22;19038;50.922;11.880;2022-12-07T18:16:33;5.30;86.90
32626;DHT22;19038;50.922;11.880;2022-12-07T18:21:33;5.30;86.90
32626;DHT22;19038;50.922;11.880;2022-12-07T18:26:33;5.30;87.10
32626;DHT22;19038;50.922;11.880;2022-12-07T18:31:34;5.30;86.90
32626;DHT22;19038;50.922;11.880;2022-12-07T18:36:33;5.30;87.00
32626;DHT22;19038;50.922;11.880;2022-12-07T18:41:33;5.20;86.80
32626;DHT22;19038;50.922;11.880;2022-12-07T18:46:34;5.30;87.00
32626;DHT22;19038;50.922;11.880;2022-12-07T18:51:33;5.20;86.40
32626;DHT22;19038;50.922;11.880;2022-12-07T18:56:33;5.20;86.70
32626;DHT22;19038;50.922;11.880;2022-12-07T19:01:33;5.10;86.50
32626;DHT22;19038;50.922;11.880;2022-12-07T19:06:33;5.10;86.60
32626;DHT22;19038;50.922;11.880;2022-12-07T19:11:33;5.10;86.80
32626;DHT22;19038;50.922;11.880;2022-12-07T19:16:33;5.10;86.80
32626;DHT22;19038;50.922;11.880;2022-12-07T19:21:33;5.10;87.10
32626;DHT22;19038;50.922;11.880;2022-12-07T19:26:33;5.10;87.00
32626;DHT22;19038;50.922;11.880;2022-12-07T19:31:34;5.10;87.10
32626;DHT22;19038;50.922;11.880;2022-12-07T19:36:33;5.10;87.10
32626;DHT22;19038;50.922;11.880;2022-12-07T19:41:33;5.10;87.20
32626;DHT22;19038;50.922;11.880;2022-12-07T19:46:33;5.20;87.40
32626;DHT22;19038;50.922;11.880;2022-12-07T19:51:33;5.20;87.20
32626;DHT22;19038;50.922;11.880;2022-12-07T19:56:33;5.20;87.10
32626;DHT22;19038;50.922;11.880;2022-12-07T20:01:33;5.20;87.00
32626;DHT22;19038;50.922;11.880;2022-12-07T20:06:33;5.20;86.90
32626;DHT22;19038;50.922;11.880;2022-12-07T20:11:34;5.20;86.90
32626;DHT22;19038;50.922;11.880;2022-12-07T20:16:33;5.20;86.90
32626;DHT22;19038;50.922;11.880;2022-12-07T20:21:34;5.20;86.70
32626;DHT22;19038;50.922;11.880;2022-12-07T20:26:33;5.20;86.80
32626;DHT22;19038;50.922;11.880;2022-12-07T20:31:33;5.20;86.90
32626;DHT22;19038;50.922;11.880;2022-12-07T20:36:33;5.10;86.80
32626;DHT22;19038;50.922;11.880;2022-12-07T20:41:33;5.20;86.70
32626;DHT22;19038;50.922;11.880;2022-12-07T20:46:34;5.10;86.80
32626;DHT22;19038;50.922;11.880;2022-12-07T20:51:33;5.10;86.70
32626;DHT22;19038;50.922;11.880;2022-12-07T20:56:33;5.10;86.70
32626;DHT22;19038;50.922;11.880;2022-12-07T21:01:33;5.20;86.80
32626;DHT22;19038;50.922;11.880;2022-12-07T21:06:33;5.10;86.90
32626;DHT22;19038;50.922;11.880;2022-12-07T21:11:33;5.10;86.60
32626;DHT22;19038;50.922;11.880;2022-12-07T21:16:33;5.10;86.70
32626;DHT22;19038;50.922;11.880;2022-12-07T21:21:34;5.10;86.80
32626;DHT22;19038;50.922;11.880;2022-12-07T21:26:34;5.10;86.80
32626;DHT22;19038;50.922;11.880;2022-12-07T21:31:33;5.10;86.50
32626;DHT22;19038;50.922;11.880;2022-12-07T21:36:34;5.10;86.80
32626;DHT22;19038;50.922;11.880;2022-12-07T21:41:34;5.00;86.60
32626;DHT22;19038;50.922;11.880;2022-12-07T21:46:33;5.00;86.60
32626;DHT22;19038;50.922;11.880;2022-12-07T21:51:33;5.00;86.60
32626;DHT22;19038;50.922;11.880;2022-12-07T21:56:34;5.00;86.40
32626;DHT22;19038;50.922;11.880;2022-12-07T22:01:34;5.00;86.50
32626;DHT22;19038;50.922;11.880;2022-12-07T22:06:34;4.90;86.30
32626;DHT22;19038;50.922;11.880;2022-12-07T22:11:33;4.90;86.50
32626;DHT22;19038;50.922;11.880;2022-12-07T22:16:33;4.90;86.50
32626;DHT22;19038;50.922;11.880;2022-12-07T22:21:34;4.90;86.50
32626;DHT22;19038;50.922;11.880;2022-12-07T22:26:33;4.90;86.50
32626;DHT22;19038;50.922;11.880;2022-12-07T22:31:33;4.90;86.60
32626;DHT22;19038;50.922;11.880;2022-12-07T22:36:33;4.80;86.50
32626;DHT22;19038;50.922;11.880;2022-12-07T22:41:33;4.90;86.80
32626;DHT22;19038;50.922;11.880;2022-12-07T22:46:33;4.80;86.60
32626;DHT22;19038;50.922;11.880;2022-12-07T22:51:35;4.80;86.70
32626;DHT22;19038;50.922;11.880;2022-12-07T22:56:34;4.80;86.70
32626;DHT22;19038;50.922;11.880;2022-12-07T23:01:33;4.80;86.60
32626;DHT22;19038;50.922;11.880;2022-12-07T23:06:33;4.90;86.80
32626;DHT22;19038;50.922;11.880;2022-12-07T23:11:35;4.80;86.60
32626;DHT22;19038;50.922;11.880;2022-12-07T23:16:33;4.80;86.50
32626;DHT22;19038;50.922;11.880;2022-12-07T23:21:33;4.80;86.40
32626;DHT22;19038;50.922;11.880;2022-12-07T23:26:33;4.80;86.40
32626;DHT22;19038;50.922;11.880;2022-12-07T23:31:33;4.80;86.20
32626;DHT22;19038;50.922;11.880;2022-12-07T23:36:33;4.80;86.30
32626;DHT22;19038;50.922;11.880;2022-12-07T23:41:33;4.80;86.30
32626;DHT22;19038;50.922;11.880;2022-12-07T23:46:33;4.80;86.30
32626;DHT22;19038;50.922;11.880;2022-12-07T23:51:33;4.80;86.30
32626;DHT22;19038;50.922;11.880;2022-12-07T23:56:33;4.80;86.60
